createdAt,value
2023-02-23T00:00:21.235Z,60.12
2023-02-23T00:01:29.824Z,60.06
2023-02-23T00:02:31.459Z,60.24
2023-02-23T00:03:33.049Z,60.69
2023-02-23T00:04:35.752Z,60.84
2023-02-23T00:05:37.962Z,61.26
2023-02-23T00:06:39.600Z,61.14
2023-02-23T00:07:45.804Z,61.34
2023-02-23T00:08:52.181Z,60.85
2023-02-23T00:09:53.702Z,60.89
2023-02-23T00:10:58.676Z,60.86
2023-02-23T00:12:00.231Z,61.44
2023-02-23T00:13:01.819Z,61.07
2023-02-23T00:14:03.967Z,61.16
2023-02-23T00:15:07.574Z,60.85
2023-02-23T00:16:17.653Z,61.22
2023-02-23T00:17:19.233Z,61.00
2023-02-23T00:18:21.045Z,61.14
2023-02-23T00:19:24.902Z,61.49
2023-02-23T00:20:29.759Z,60.82
2023-02-23T00:21:34.680Z,61.47
2023-02-23T00:22:36.226Z,60.73
2023-02-23T00:23:38.765Z,61.12
2023-02-23T00:24:42.374Z,61.41
2023-02-23T00:25:46.292Z,61.66
2023-02-23T00:26:48.668Z,61.59
2023-02-23T00:27:51.770Z,62.28
2023-02-23T00:28:54.371Z,62.46
2023-02-23T00:29:56.452Z,62.24
2023-02-23T00:30:59.850Z,62.36
2023-02-23T00:32:01.595Z,62.13
2023-02-23T00:33:03.472Z,62.31
2023-02-23T00:34:06.017Z,62.25
2023-02-23T00:35:12.646Z,62.91
2023-02-23T00:36:15.894Z,63.17
2023-02-23T00:37:18.871Z,62.62
2023-02-23T00:38:20.406Z,63.15
2023-02-23T00:39:25.092Z,63.26
2023-02-23T00:40:26.699Z,62.87
2023-02-23T00:41:29.761Z,62.36
2023-02-23T00:42:32.343Z,62.43
2023-02-23T00:43:38.284Z,62.33
2023-02-23T00:44:40.662Z,62.84
2023-02-23T00:45:42.396Z,62.64
2023-02-23T00:46:45.417Z,63.07
2023-02-23T00:47:48.811Z,63.68
2023-02-23T00:48:51.361Z,63.53
2023-02-23T00:49:52.969Z,64.04
2023-02-23T00:51:02.407Z,63.06
2023-02-23T00:52:05.062Z,62.83
2023-02-23T00:53:06.623Z,63.54
2023-02-23T00:54:08.667Z,63.04
2023-02-23T00:55:12.727Z,63.29
2023-02-23T00:56:15.982Z,62.83
2023-02-23T00:57:17.525Z,62.78
2023-02-23T00:58:19.767Z,62.55
2023-02-23T00:59:21.405Z,63.00
2023-02-23T01:00:23.016Z,62.84
2023-02-23T01:01:25.558Z,63.33
2023-02-23T01:02:30.681Z,63.35
2023-02-23T01:03:32.293Z,63.43
2023-02-23T01:04:33.849Z,63.75
2023-02-23T01:05:35.587Z,63.66
2023-02-23T01:06:38.158Z,64.12
2023-02-23T01:07:40.788Z,63.91
2023-02-23T01:08:44.648Z,64.28
2023-02-23T01:09:46.287Z,63.62
2023-02-23T01:10:53.093Z,64.82
2023-02-23T01:11:57.066Z,64.70
2023-02-23T01:12:58.650Z,64.94
2023-02-23T01:14:01.290Z,65.83
2023-02-23T01:15:03.616Z,65.44
2023-02-23T01:16:11.422Z,66.76
2023-02-23T01:17:13.082Z,66.92
2023-02-23T01:18:16.990Z,66.17
2023-02-23T01:19:18.809Z,65.88
2023-02-23T01:20:20.566Z,65.68
2023-02-23T01:21:26.959Z,65.92
2023-02-23T01:22:28.498Z,66.37
2023-02-23T01:23:30.035Z,66.24
2023-02-23T01:24:31.619Z,66.79
2023-02-23T01:25:34.096Z,66.22
2023-02-23T01:26:39.020Z,67.10
2023-02-23T01:27:41.619Z,67.18
2023-02-23T01:28:43.228Z,66.60
2023-02-23T01:29:44.810Z,66.19
2023-02-23T01:30:46.497Z,66.01
2023-02-23T01:31:51.221Z,65.64
2023-02-23T01:32:53.047Z,65.70
2023-02-23T01:33:55.525Z,65.57
2023-02-23T01:34:57.060Z,65.34
2023-02-23T01:36:00.161Z,65.44
2023-02-23T01:37:01.773Z,64.96
2023-02-23T01:38:03.921Z,65.19
2023-02-23T01:39:07.870Z,65.29
2023-02-23T01:40:15.342Z,65.63
2023-02-23T01:41:17.481Z,65.01
2023-02-23T01:42:19.319Z,64.88
2023-02-23T01:43:31.206Z,64.64
2023-02-23T01:44:32.652Z,65.09
2023-02-23T01:45:35.672Z,64.15
2023-02-23T01:46:39.938Z,64.16
2023-02-23T01:47:41.548Z,64.82
2023-02-23T01:48:43.176Z,64.27
2023-02-23T01:49:44.879Z,64.63
2023-02-23T01:50:58.213Z,64.17
2023-02-23T01:52:04.988Z,64.61
2023-02-23T01:53:06.690Z,64.40
2023-02-23T01:54:16.001Z,64.65
2023-02-23T01:55:24.118Z,64.53
2023-02-23T01:56:31.700Z,64.52
2023-02-23T01:57:33.275Z,64.61
2023-02-23T01:58:34.953Z,64.80
2023-02-23T01:59:43.539Z,65.09
2023-02-23T02:00:50.146Z,64.95
2023-02-23T02:01:51.766Z,64.83
2023-02-23T02:02:53.568Z,65.07
2023-02-23T02:03:58.425Z,64.40
2023-02-23T02:05:02.425Z,64.57
2023-02-23T02:06:07.195Z,64.80
2023-02-23T02:07:09.133Z,64.85
2023-02-23T02:08:11.135Z,65.15
2023-02-23T02:09:19.590Z,65.59
2023-02-23T02:10:39.480Z,65.58
2023-02-23T02:11:44.529Z,65.19
2023-02-23T02:12:53.818Z,65.46
2023-02-23T02:13:59.808Z,65.78
2023-02-23T02:15:04.934Z,66.29
2023-02-23T02:16:18.950Z,66.32
2023-02-23T02:18:11.282Z,66.11
2023-02-23T02:19:24.975Z,66.93
2023-02-23T02:20:38.544Z,67.82
2023-02-23T02:22:01.826Z,68.10
2023-02-23T02:23:15.484Z,67.77
2023-02-23T02:24:37.713Z,67.98
2023-02-23T02:25:57.878Z,67.91
2023-02-23T02:27:36.467Z,67.57
2023-02-23T02:28:43.980Z,67.39
2023-02-23T02:30:16.561Z,67.38
2023-02-23T02:31:49.677Z,66.97
2023-02-23T02:33:11.255Z,66.60
2023-02-23T02:34:42.528Z,66.80
2023-02-23T02:36:01.578Z,66.54
2023-02-23T02:37:12.139Z,66.68
2023-02-23T02:38:26.114Z,66.65
2023-02-23T02:39:46.726Z,66.17
2023-02-23T02:41:14.119Z,66.52
2023-02-23T02:42:39.957Z,65.70
2023-02-23T02:43:57.604Z,66.19
2023-02-23T02:45:25.944Z,65.67
2023-02-23T02:46:32.362Z,65.92
2023-02-23T02:47:50.506Z,65.18
2023-02-23T02:49:12.088Z,65.69
2023-02-23T02:50:50.136Z,65.45
2023-02-23T02:52:15.824Z,65.26
2023-02-23T02:53:47.446Z,65.41
2023-02-23T02:54:53.590Z,64.95
2023-02-23T02:56:00.394Z,65.73
2023-02-23T02:57:04.493Z,65.58
2023-02-23T02:58:08.144Z,65.42
2023-02-23T02:59:32.803Z,65.82
2023-02-23T03:01:03.627Z,66.43
2023-02-23T03:02:24.782Z,65.58
2023-02-23T03:03:50.779Z,65.38
2023-02-23T03:05:10.662Z,65.88
2023-02-23T03:06:30.859Z,65.71
2023-02-23T03:08:00.263Z,65.67
2023-02-23T03:09:47.717Z,65.85
2023-02-23T03:11:24.842Z,65.23
2023-02-23T03:12:58.427Z,65.85
2023-02-23T03:14:49.293Z,65.68
2023-02-23T03:16:18.523Z,64.91
2023-02-23T03:17:52.528Z,65.65
2023-02-23T03:19:12.688Z,65.12
2023-02-23T03:20:51.273Z,65.19
2023-02-23T03:22:20.499Z,65.62
2023-02-23T03:23:45.911Z,65.27
2023-02-23T03:25:17.900Z,65.87
2023-02-23T03:26:59.454Z,65.86
2023-02-23T03:28:45.026Z,66.55
2023-02-23T03:30:19.643Z,67.95
2023-02-23T03:31:55.886Z,69.82
2023-02-23T03:33:21.459Z,71.13
2023-02-23T03:34:51.944Z,72.07
2023-02-23T03:36:19.069Z,72.40
2023-02-23T03:37:51.222Z,73.39
2023-02-23T03:39:33.233Z,73.06
2023-02-23T03:40:57.397Z,71.93
2023-02-23T03:42:21.164Z,72.82
2023-02-23T03:43:46.554Z,71.69
2023-02-23T03:45:08.996Z,72.43
2023-02-23T03:46:32.928Z,71.65
2023-02-23T03:47:58.353Z,72.77
2023-02-23T03:49:23.345Z,73.06
2023-02-23T03:50:56.502Z,72.47
2023-02-23T03:52:24.263Z,73.29
2023-02-23T03:53:50.593Z,73.34
2023-02-23T03:55:16.655Z,72.20
2023-02-23T03:56:39.157Z,71.86
2023-02-23T03:58:01.623Z,71.99
2023-02-23T03:59:25.516Z,72.23
2023-02-23T04:00:55.583Z,70.98
2023-02-23T04:02:18.144Z,71.22
2023-02-23T04:03:40.440Z,70.26
2023-02-23T04:05:03.461Z,69.94
2023-02-23T04:06:27.096Z,70.77
2023-02-23T04:07:48.268Z,69.68
2023-02-23T04:09:09.515Z,70.14
2023-02-23T04:10:30.532Z,69.19
2023-02-23T04:12:09.237Z,68.70
2023-02-23T04:13:24.176Z,68.95
2023-02-23T04:14:39.717Z,69.25
2023-02-23T04:15:49.111Z,68.39
2023-02-23T04:16:50.930Z,68.46
2023-02-23T04:17:53.865Z,67.31
2023-02-23T04:18:55.825Z,67.75
2023-02-23T04:19:57.372Z,66.95
2023-02-23T04:20:59.671Z,67.90
2023-02-23T04:22:01.236Z,68.10
2023-02-23T04:23:02.855Z,67.66
2023-02-23T04:24:04.637Z,68.04
2023-02-23T04:25:08.984Z,68.05
2023-02-23T04:26:10.603Z,67.55
2023-02-23T04:27:13.631Z,66.93
2023-02-23T04:28:16.154Z,67.19
2023-02-23T04:29:17.701Z,67.08
2023-02-23T04:30:20.714Z,67.09
2023-02-23T04:31:25.128Z,67.54
2023-02-23T04:32:27.381Z,67.36
2023-02-23T04:33:29.087Z,67.09
2023-02-23T04:34:30.660Z,67.38
2023-02-23T04:35:32.275Z,67.85
2023-02-23T04:36:34.338Z,67.26
2023-02-23T04:37:35.963Z,67.85
2023-02-23T04:38:37.689Z,67.21
2023-02-23T04:39:39.533Z,67.26
2023-02-23T04:40:41.113Z,67.24
2023-02-23T04:41:42.791Z,67.48
2023-02-23T04:42:44.489Z,66.91
2023-02-23T04:43:46.090Z,67.53
2023-02-23T04:44:47.676Z,67.79
2023-02-23T04:45:49.478Z,67.78
2023-02-23T04:46:51.110Z,68.92
2023-02-23T04:47:52.845Z,68.63
2023-02-23T04:48:54.381Z,69.43
2023-02-23T04:49:56.022Z,68.58
2023-02-23T04:50:57.647Z,68.85
2023-02-23T04:51:59.902Z,69.18
2023-02-23T04:53:01.595Z,69.48
2023-02-23T04:54:04.571Z,69.81
2023-02-23T04:55:07.278Z,70.54
2023-02-23T04:56:08.882Z,71.40
2023-02-23T04:57:10.877Z,71.90
2023-02-23T04:58:13.843Z,71.82
2023-02-23T04:59:15.537Z,71.94
2023-02-23T05:00:18.724Z,71.51
2023-02-23T05:01:22.421Z,72.17
2023-02-23T05:02:25.127Z,71.38
2023-02-23T05:03:27.229Z,71.17
2023-02-23T05:04:29.436Z,71.21
2023-02-23T05:05:31.536Z,71.90
2023-02-23T05:06:33.128Z,70.81
2023-02-23T05:07:36.103Z,70.80
2023-02-23T05:08:37.603Z,71.06
2023-02-23T05:09:40.513Z,71.60
2023-02-23T05:10:42.775Z,70.73
2023-02-23T05:11:44.376Z,71.63
2023-02-23T05:12:46.677Z,71.03
2023-02-23T05:13:48.257Z,71.13
2023-02-23T05:14:50.043Z,72.25
2023-02-23T05:15:56.574Z,77.30
2023-02-23T05:16:58.150Z,76.67
2023-02-23T05:17:59.686Z,75.62
2023-02-23T05:19:01.618Z,75.83
2023-02-23T05:20:03.385Z,75.32
2023-02-23T05:21:08.087Z,75.77
2023-02-23T05:22:12.570Z,76.77
2023-02-23T05:23:14.227Z,77.43
2023-02-23T05:24:17.290Z,77.22
2023-02-23T05:25:19.097Z,78.32
2023-02-23T05:26:20.671Z,77.84
2023-02-23T05:27:22.255Z,78.58
2023-02-23T05:28:23.827Z,79.31
2023-02-23T05:29:25.344Z,80.02
2023-02-23T05:30:26.986Z,79.99
2023-02-23T05:31:28.916Z,80.81
2023-02-23T05:32:30.552Z,80.70
2023-02-23T05:33:33.386Z,81.51
2023-02-23T05:34:35.398Z,81.98
2023-02-23T05:35:40.567Z,82.25
2023-02-23T05:36:42.314Z,82.04
2023-02-23T05:37:44.696Z,83.44
2023-02-23T05:38:47.158Z,83.46
2023-02-23T05:39:48.847Z,82.17
2023-02-23T05:40:50.449Z,81.82
2023-02-23T05:41:52.556Z,81.47
2023-02-23T05:42:59.200Z,82.37
2023-02-23T05:44:01.591Z,82.84
2023-02-23T05:45:04.972Z,83.30
2023-02-23T05:46:12.008Z,84.32
2023-02-23T05:47:13.648Z,84.24
2023-02-23T05:48:15.254Z,84.25
2023-02-23T05:49:16.834Z,84.59
2023-02-23T05:50:18.749Z,84.30
2023-02-23T05:51:20.608Z,83.23
2023-02-23T05:52:22.521Z,80.93
2023-02-23T05:53:24.089Z,80.64
2023-02-23T05:54:26.072Z,80.61
2023-02-23T05:55:28.284Z,79.30
2023-02-23T05:56:29.887Z,79.66
2023-02-23T05:57:31.582Z,78.80
2023-02-23T05:58:33.166Z,78.00
2023-02-23T05:59:34.739Z,76.78
2023-02-23T06:00:36.279Z,75.93
2023-02-23T06:01:39.376Z,75.34
2023-02-23T06:02:41.921Z,75.38
2023-02-23T06:03:44.858Z,75.39
2023-02-23T06:04:47.147Z,75.04
2023-02-23T06:05:57.648Z,75.89
2023-02-23T06:06:59.255Z,75.21
2023-02-23T06:08:00.818Z,74.77
2023-02-23T06:09:03.595Z,74.81
2023-02-23T06:10:06.330Z,75.46
2023-02-23T06:11:08.384Z,75.69
2023-02-23T06:12:09.931Z,74.99
2023-02-23T06:13:12.033Z,74.58
2023-02-23T06:14:13.764Z,75.09
2023-02-23T06:15:15.351Z,74.68
2023-02-23T06:16:17.096Z,74.10
2023-02-23T06:17:18.773Z,74.03
2023-02-23T06:18:21.838Z,73.21
2023-02-23T06:19:23.402Z,73.21
2023-02-23T06:20:25.042Z,73.72
2023-02-23T06:21:26.591Z,73.53
2023-02-23T06:22:28.155Z,73.24
2023-02-23T06:23:30.690Z,73.91
2023-02-23T06:24:32.439Z,73.65
2023-02-23T06:25:34.270Z,74.48
2023-02-23T06:26:35.819Z,74.13
2023-02-23T06:27:37.338Z,73.55
2023-02-23T06:28:38.960Z,73.43
2023-02-23T06:29:40.552Z,73.63
2023-02-23T06:30:42.282Z,74.38
2023-02-23T06:31:43.993Z,74.21
2023-02-23T06:32:45.627Z,74.54
2023-02-23T06:33:48.381Z,74.34
2023-02-23T06:34:50.340Z,74.63
2023-02-23T06:35:52.616Z,74.58
2023-02-23T06:36:54.158Z,75.36
2023-02-23T06:37:55.807Z,76.10
2023-02-23T06:38:58.623Z,75.93
2023-02-23T06:40:00.382Z,76.00
2023-02-23T06:41:08.697Z,76.29
2023-02-23T06:42:10.201Z,76.55
2023-02-23T06:43:11.895Z,76.61
2023-02-23T06:44:13.696Z,76.37
2023-02-23T06:45:15.219Z,76.56
2023-02-23T06:46:16.800Z,76.60
2023-02-23T06:47:18.598Z,76.23
2023-02-23T06:48:20.164Z,76.70
2023-02-23T06:49:21.752Z,75.74
2023-02-23T06:50:23.321Z,75.28
2023-02-23T06:51:24.943Z,75.69
2023-02-23T06:52:26.511Z,76.11
2023-02-23T06:53:28.221Z,75.70
2023-02-23T06:54:29.780Z,75.16
2023-02-23T06:55:31.382Z,75.57
2023-02-23T06:56:32.944Z,75.29
2023-02-23T06:57:34.612Z,75.27
2023-02-23T06:58:36.158Z,76.25
2023-02-23T06:59:37.882Z,75.82
2023-02-23T07:00:43.015Z,75.94
2023-02-23T07:01:44.828Z,76.74
2023-02-23T07:02:46.507Z,77.33
2023-02-23T07:03:48.491Z,76.50
2023-02-23T07:04:50.120Z,76.02
2023-02-23T07:05:52.720Z,76.92
2023-02-23T07:06:54.274Z,76.06
2023-02-23T07:07:55.894Z,76.53
2023-02-23T07:08:58.380Z,76.02
2023-02-23T07:09:59.961Z,75.06
2023-02-23T07:11:07.544Z,74.54
2023-02-23T07:12:10.305Z,74.20
2023-02-23T07:13:14.780Z,73.24
2023-02-23T07:14:26.215Z,72.47
2023-02-23T07:15:28.331Z,72.79
2023-02-23T07:16:30.002Z,73.10
2023-02-23T07:17:31.622Z,73.46
2023-02-23T07:18:33.329Z,73.23
2023-02-23T07:19:34.858Z,73.04
2023-02-23T07:20:36.439Z,72.45
2023-02-23T07:21:38.027Z,71.92
2023-02-23T07:22:40.076Z,70.81
2023-02-23T07:23:41.738Z,70.25
2023-02-23T07:24:43.313Z,71.13
2023-02-23T07:25:45.340Z,71.45
2023-02-23T07:26:47.425Z,70.46
2023-02-23T07:27:49.164Z,70.37
2023-02-23T07:28:52.230Z,69.54
2023-02-23T07:29:54.910Z,68.44
2023-02-23T07:30:57.825Z,68.71
2023-02-23T07:31:59.547Z,67.67
2023-02-23T07:33:01.135Z,67.60
2023-02-23T07:34:02.711Z,67.84
2023-02-23T07:35:05.388Z,66.72
2023-02-23T07:36:07.383Z,66.38
2023-02-23T07:37:08.924Z,65.44
2023-02-23T07:38:10.442Z,66.25
2023-02-23T07:39:12.924Z,67.07
2023-02-23T07:40:16.325Z,67.42
2023-02-23T07:41:18.337Z,67.69
2023-02-23T07:42:20.063Z,67.33
2023-02-23T07:43:22.683Z,67.64
2023-02-23T07:44:24.299Z,68.48
2023-02-23T07:45:25.852Z,69.08
2023-02-23T07:46:27.501Z,68.42
2023-02-23T07:47:31.181Z,67.41
2023-02-23T07:48:33.318Z,67.74
2023-02-23T07:49:34.931Z,67.32
2023-02-23T07:50:36.465Z,65.88
2023-02-23T07:51:39.345Z,66.30
2023-02-23T07:52:43.216Z,64.77
2023-02-23T07:53:45.169Z,66.33
2023-02-23T07:54:46.736Z,65.76
2023-02-23T07:55:56.462Z,65.37
2023-02-23T07:56:58.685Z,64.15
2023-02-23T07:58:00.230Z,65.55
2023-02-23T07:59:02.051Z,65.97
2023-02-23T08:00:05.901Z,65.03
2023-02-23T08:01:08.812Z,65.33
2023-02-23T08:02:13.148Z,65.50
2023-02-23T08:03:14.713Z,65.35
2023-02-23T08:04:16.283Z,64.90
2023-02-23T08:05:17.880Z,64.39
2023-02-23T08:06:20.024Z,63.08
2023-02-23T08:07:22.473Z,63.11
2023-02-23T08:08:24.321Z,63.03
2023-02-23T08:09:25.860Z,62.15
2023-02-23T08:10:27.468Z,61.01
2023-02-23T08:11:29.165Z,60.69
2023-02-23T08:12:33.721Z,62.23
2023-02-23T08:13:37.218Z,60.84
2023-02-23T08:14:38.781Z,61.76
2023-02-23T08:15:41.038Z,62.34
2023-02-23T08:16:42.805Z,62.45
2023-02-23T08:17:44.376Z,61.36
2023-02-23T08:18:46.274Z,62.10
2023-02-23T08:19:48.010Z,62.42
2023-02-23T08:20:49.749Z,61.98
2023-02-23T08:21:51.374Z,61.30
2023-02-23T08:22:57.047Z,61.15
2023-02-23T08:23:58.907Z,60.99
2023-02-23T08:25:00.487Z,61.05
2023-02-23T08:26:02.555Z,60.36
2023-02-23T08:27:04.250Z,59.91
2023-02-23T08:28:06.971Z,59.41
2023-02-23T08:29:09.082Z,58.72
2023-02-23T08:30:14.141Z,59.26
2023-02-23T08:31:18.863Z,59.55
2023-02-23T08:32:21.320Z,59.49
2023-02-23T08:33:23.005Z,59.39
2023-02-23T08:34:24.871Z,60.55
2023-02-23T08:35:26.526Z,60.89
2023-02-23T08:36:28.170Z,59.88
2023-02-23T08:37:30.083Z,58.85
2023-02-23T08:38:31.721Z,58.50
2023-02-23T08:39:33.771Z,57.72
2023-02-23T08:40:35.374Z,57.50
2023-02-23T08:41:37.032Z,56.92
2023-02-23T08:42:38.606Z,56.73
2023-02-23T08:43:40.172Z,56.17
2023-02-23T08:44:41.698Z,55.90
2023-02-23T08:45:43.259Z,56.06
2023-02-23T08:46:45.881Z,56.17
2023-02-23T08:47:47.621Z,55.89
2023-02-23T08:48:49.221Z,55.55
2023-02-23T08:49:51.176Z,55.28
2023-02-23T08:50:57.462Z,55.40
2023-02-23T08:51:59.036Z,54.37
2023-02-23T08:53:00.615Z,54.46
2023-02-23T08:54:02.264Z,53.80
2023-02-23T08:55:04.649Z,54.40
2023-02-23T08:56:07.655Z,56.53
2023-02-23T08:57:11.621Z,55.37
2023-02-23T08:58:14.054Z,54.98
2023-02-23T08:59:15.717Z,55.53
2023-02-23T09:00:17.768Z,55.64
2023-02-23T09:01:22.187Z,55.02
2023-02-23T09:02:24.833Z,54.81
2023-02-23T09:03:30.200Z,54.49
2023-02-23T09:04:35.198Z,54.74
2023-02-23T09:05:38.412Z,55.80
2023-02-23T09:06:41.009Z,57.22
2023-02-23T09:07:46.772Z,56.79
2023-02-23T09:08:48.351Z,57.61
2023-02-23T09:09:56.818Z,57.22
2023-02-23T09:10:58.401Z,55.65
2023-02-23T09:12:00.753Z,54.90
2023-02-23T09:13:03.018Z,54.71
2023-02-23T09:14:04.638Z,54.22
2023-02-23T09:15:06.959Z,54.35
2023-02-23T09:16:08.875Z,54.35
2023-02-23T09:17:10.547Z,53.92
2023-02-23T09:18:17.429Z,53.31
2023-02-23T09:19:20.150Z,54.06
2023-02-23T09:20:26.943Z,54.50
2023-02-23T09:21:29.990Z,55.01
2023-02-23T09:22:32.030Z,54.91
2023-02-23T09:23:35.160Z,54.31
2023-02-23T09:24:39.328Z,53.86
2023-02-23T09:25:45.730Z,54.10
2023-02-23T09:26:48.111Z,53.57
2023-02-23T09:27:54.209Z,54.37
2023-02-23T09:28:57.982Z,52.45
2023-02-23T09:29:59.579Z,52.70
2023-02-23T09:31:13.144Z,53.50
2023-02-23T09:32:14.913Z,53.78
2023-02-23T09:33:17.374Z,54.25
2023-02-23T09:34:19.923Z,54.57
2023-02-23T09:35:24.535Z,53.96
2023-02-23T09:36:26.383Z,53.41
2023-02-23T09:37:27.956Z,53.09
2023-02-23T09:38:30.380Z,52.97
2023-02-23T09:39:38.046Z,52.46
2023-02-23T09:40:47.619Z,52.30
2023-02-23T09:42:30.166Z,51.38
2023-02-23T09:43:56.182Z,51.18
2023-02-23T09:45:28.111Z,51.28
2023-02-23T09:46:54.953Z,51.21
2023-02-23T09:48:16.702Z,50.77
2023-02-23T09:49:22.176Z,50.45
2023-02-23T09:50:28.214Z,52.23
2023-02-23T09:51:37.355Z,52.11
2023-02-23T09:52:42.614Z,52.47
2023-02-23T09:53:50.017Z,52.65
2023-02-23T09:54:52.292Z,53.41
2023-02-23T09:55:54.850Z,53.35
2023-02-23T09:56:58.396Z,52.40
2023-02-23T09:58:21.098Z,51.81
2023-02-23T09:59:23.230Z,51.89
2023-02-23T10:00:29.822Z,52.77
2023-02-23T10:01:52.378Z,51.92
2023-02-23T10:03:40.722Z,51.52
2023-02-23T10:04:47.894Z,50.62
2023-02-23T10:05:59.410Z,50.77
2023-02-23T10:07:19.726Z,50.99
2023-02-23T10:08:31.837Z,50.16
2023-02-23T10:09:33.303Z,50.30
2023-02-23T10:10:59.820Z,50.64
2023-02-23T10:12:19.610Z,50.09
2023-02-23T10:13:45.808Z,49.13
2023-02-23T10:14:58.534Z,48.17
2023-02-23T10:16:12.501Z,48.72
2023-02-23T10:17:34.912Z,48.23
2023-02-23T10:18:54.914Z,47.90
2023-02-23T10:20:04.217Z,48.25
2023-02-23T10:21:25.858Z,49.12
2023-02-23T10:22:28.877Z,48.08
2023-02-23T10:23:42.845Z,48.20
2023-02-23T10:25:00.673Z,47.34
2023-02-23T10:26:03.743Z,47.94
2023-02-23T10:27:23.677Z,47.79
2023-02-23T10:28:27.586Z,48.85
2023-02-23T10:29:41.287Z,48.09
2023-02-23T10:30:43.796Z,47.77
2023-02-23T10:31:50.981Z,47.93
2023-02-23T10:33:16.579Z,47.25
2023-02-23T10:34:18.464Z,47.84
2023-02-23T10:35:21.873Z,47.81
2023-02-23T10:36:38.273Z,48.38
2023-02-23T10:37:39.971Z,48.89
2023-02-23T10:38:41.592Z,48.23
2023-02-23T10:39:43.207Z,49.02
2023-02-23T10:40:55.497Z,48.71
2023-02-23T10:42:06.540Z,48.60
2023-02-23T10:43:12.824Z,48.92
2023-02-23T10:44:24.377Z,48.60
2023-02-23T10:45:28.555Z,46.89
2023-02-23T10:46:38.584Z,48.12
2023-02-23T10:47:41.496Z,47.62
2023-02-23T10:48:44.196Z,47.37
2023-02-23T10:49:49.125Z,46.64
2023-02-23T10:50:54.052Z,48.15
2023-02-23T10:51:58.329Z,48.45
2023-02-23T10:53:27.692Z,46.30
2023-02-23T10:54:45.676Z,46.05
2023-02-23T10:55:59.676Z,46.88
2023-02-23T10:57:01.834Z,46.60
2023-02-23T10:58:05.928Z,47.77
2023-02-23T10:59:20.570Z,46.40
2023-02-23T11:00:28.747Z,46.96
2023-02-23T11:02:01.045Z,46.47
2023-02-23T11:03:24.567Z,46.67
2023-02-23T11:04:29.376Z,46.06
2023-02-23T11:05:32.969Z,45.66
2023-02-23T11:06:43.034Z,45.89
2023-02-23T11:07:45.230Z,45.88
2023-02-23T11:08:46.805Z,45.46
2023-02-23T11:09:49.577Z,45.94
2023-02-23T11:10:58.915Z,46.04
2023-02-23T11:12:02.728Z,46.42
2023-02-23T11:13:04.279Z,45.43
2023-02-23T11:14:16.972Z,45.55
2023-02-23T11:15:32.032Z,44.68
2023-02-23T11:16:41.236Z,45.18
2023-02-23T11:17:43.147Z,44.99
2023-02-23T11:18:50.786Z,45.29
2023-02-23T11:19:59.065Z,44.53
2023-02-23T11:21:00.780Z,44.94
2023-02-23T11:22:03.180Z,44.96
2023-02-23T11:23:16.681Z,44.72
2023-02-23T11:24:25.074Z,44.99
2023-02-23T11:25:32.016Z,44.05
2023-02-23T11:26:42.383Z,43.93
2023-02-23T11:27:51.548Z,43.07
2023-02-23T11:28:59.502Z,44.08
2023-02-23T11:30:06.353Z,43.91
2023-02-23T11:31:18.941Z,42.75
2023-02-23T11:32:32.697Z,43.59
2023-02-23T11:33:36.110Z,42.39
2023-02-23T11:34:40.901Z,42.27
2023-02-23T11:35:42.538Z,42.77
2023-02-23T11:36:44.072Z,42.80
2023-02-23T11:37:46.093Z,43.81
2023-02-23T11:38:47.903Z,42.83
2023-02-23T11:39:58.342Z,43.21
2023-02-23T11:41:07.242Z,43.28
2023-02-23T11:42:20.479Z,43.59
2023-02-23T11:43:22.104Z,43.24
2023-02-23T11:44:24.097Z,43.63
2023-02-23T11:45:32.214Z,44.78
2023-02-23T11:46:37.879Z,44.04
2023-02-23T11:47:41.419Z,44.14
2023-02-23T11:48:55.108Z,43.42
2023-02-23T11:49:56.845Z,44.44
2023-02-23T11:51:00.225Z,43.32
2023-02-23T11:52:03.067Z,43.28
2023-02-23T11:53:17.849Z,43.18
2023-02-23T11:54:28.631Z,43.38
2023-02-23T11:55:31.949Z,41.87
2023-02-23T11:56:35.404Z,41.97
2023-02-23T11:57:37.199Z,42.73
2023-02-23T11:58:49.744Z,42.66
2023-02-23T11:59:52.231Z,42.82
2023-02-23T12:01:03.746Z,42.54
2023-02-23T12:02:19.161Z,43.71
2023-02-23T12:03:23.218Z,43.35
2023-02-23T12:04:33.436Z,43.54
2023-02-23T12:05:35.513Z,42.23
2023-02-23T12:06:41.844Z,41.88
2023-02-23T12:07:59.853Z,42.27
2023-02-23T12:09:27.974Z,42.32
2023-02-23T12:10:42.997Z,42.59
2023-02-23T12:11:51.270Z,42.63
2023-02-23T12:13:16.888Z,42.23
2023-02-23T12:14:21.332Z,42.56
2023-02-23T12:15:45.718Z,42.90
2023-02-23T12:16:53.496Z,42.22
2023-02-23T12:18:00.595Z,42.80
2023-02-23T12:19:20.642Z,42.25
2023-02-23T12:20:27.230Z,40.65
2023-02-23T12:21:45.500Z,40.05
2023-02-23T12:22:54.241Z,41.42
2023-02-23T12:24:05.484Z,40.97
2023-02-23T12:25:34.028Z,41.21
2023-02-23T12:26:46.858Z,41.77
2023-02-23T12:28:18.825Z,41.88
2023-02-23T12:29:30.414Z,42.50
2023-02-23T12:30:54.810Z,42.30
2023-02-23T12:32:05.774Z,41.02
2023-02-23T12:33:30.131Z,41.57
2023-02-23T12:34:44.444Z,40.89
2023-02-23T12:35:49.447Z,40.77
2023-02-23T12:36:57.913Z,41.21
2023-02-23T12:38:12.669Z,40.38
2023-02-23T12:39:27.962Z,40.61
2023-02-23T12:40:34.411Z,41.57
2023-02-23T12:41:51.538Z,40.61
2023-02-23T12:43:14.813Z,40.09
2023-02-23T12:44:22.227Z,40.40
2023-02-23T12:45:37.198Z,40.41
2023-02-23T12:46:47.571Z,41.37
2023-02-23T12:48:03.068Z,41.50
2023-02-23T12:49:05.279Z,41.42
2023-02-23T12:50:45.841Z,40.57
2023-02-23T12:51:55.685Z,39.99
2023-02-23T12:53:08.181Z,39.73
2023-02-23T12:54:12.708Z,37.98
2023-02-23T12:55:14.614Z,37.58
2023-02-23T12:56:47.131Z,37.53
2023-02-23T12:58:07.870Z,37.93
2023-02-23T12:59:21.965Z,38.15
2023-02-23T13:00:50.426Z,37.74
2023-02-23T13:02:02.929Z,37.63
2023-02-23T13:03:13.795Z,37.30
2023-02-23T13:04:42.871Z,38.21
2023-02-23T13:06:04.120Z,37.45
2023-02-23T13:07:19.713Z,37.48
2023-02-23T13:08:34.244Z,38.54
2023-02-23T13:09:41.487Z,38.30
2023-02-23T13:11:07.511Z,38.23
2023-02-23T13:12:14.865Z,37.93
2023-02-23T13:13:45.754Z,37.77
2023-02-23T13:15:00.517Z,38.10
2023-02-23T13:16:17.189Z,38.38
2023-02-23T13:17:37.269Z,38.09
2023-02-23T13:18:45.354Z,37.13
2023-02-23T13:19:56.275Z,38.23
2023-02-23T13:21:12.551Z,38.42
2023-02-23T13:22:26.255Z,37.69
2023-02-23T13:23:49.859Z,37.31
2023-02-23T13:24:55.308Z,37.78
2023-02-23T13:26:10.185Z,37.72
2023-02-23T13:27:23.869Z,37.79
2023-02-23T13:28:40.930Z,37.97
2023-02-23T13:29:45.036Z,38.26
2023-02-23T13:30:47.760Z,37.19
2023-02-23T13:31:50.164Z,37.47
2023-02-23T13:32:52.614Z,36.98
2023-02-23T13:33:57.773Z,37.41
2023-02-23T13:35:01.683Z,37.18
2023-02-23T13:36:04.940Z,37.59
2023-02-23T13:37:08.758Z,37.69
2023-02-23T13:38:16.107Z,38.12
2023-02-23T13:39:36.541Z,38.09
2023-02-23T13:40:52.148Z,38.26
2023-02-23T13:42:15.037Z,38.03
2023-02-23T13:43:34.058Z,38.02
2023-02-23T13:45:14.434Z,38.10
2023-02-23T13:46:46.529Z,38.30
2023-02-23T13:47:55.713Z,38.72
2023-02-23T13:49:15.417Z,38.25
2023-02-23T13:50:28.752Z,37.66
2023-02-23T13:51:49.007Z,38.55
2023-02-23T13:52:58.374Z,38.06
2023-02-23T13:54:29.620Z,37.94
2023-02-23T13:55:49.798Z,39.25
2023-02-23T13:56:57.374Z,38.81
2023-02-23T13:58:16.800Z,38.80
2023-02-23T13:59:21.803Z,39.05
2023-02-23T14:00:24.333Z,38.65
2023-02-23T14:01:40.675Z,39.17
2023-02-23T14:02:42.508Z,39.98
2023-02-23T14:04:12.512Z,39.45
2023-02-23T14:05:24.918Z,39.65
2023-02-23T14:06:29.616Z,40.05
2023-02-23T14:07:32.932Z,40.32
2023-02-23T14:08:37.737Z,39.89
2023-02-23T14:10:04.969Z,40.52
2023-02-23T14:11:06.787Z,40.65
2023-02-23T14:12:12.037Z,40.50
2023-02-23T14:13:13.554Z,41.22
2023-02-23T14:14:35.107Z,41.06
2023-02-23T14:15:37.839Z,40.92
2023-02-23T14:16:40.063Z,41.27
2023-02-23T14:17:42.073Z,41.37
2023-02-23T14:19:31.840Z,42.12
2023-02-23T14:20:39.134Z,41.92
2023-02-23T14:22:01.175Z,42.45
2023-02-23T14:23:21.007Z,42.25
2023-02-23T14:24:24.773Z,42.27
2023-02-23T14:25:35.237Z,42.87
2023-02-23T14:27:27.668Z,42.87
2023-02-23T14:28:39.366Z,42.94
2023-02-23T14:29:43.828Z,43.24
2023-02-23T14:30:51.282Z,44.13
2023-02-23T14:32:12.801Z,44.11
2023-02-23T14:33:45.234Z,44.78
2023-02-23T14:34:47.207Z,44.63
2023-02-23T14:35:49.355Z,44.04
2023-02-23T14:36:56.150Z,44.17
2023-02-23T14:38:05.242Z,44.74
2023-02-23T14:39:18.190Z,44.57